sensor_id;sensor_type;location;lat;lon;timestamp;P1;durP1;ratioP1;P2;durP2;ratioP2
18340;SDS011;9296;48.084;16.352;2023-11-19T00:02:08;13.03;;;8.40;;
18340;SDS011;9296;48.084;16.352;2023-11-19T00:07:41;12.83;;;8.00;;
18340;SDS011;9296;48.084;16.352;2023-11-19T00:10:09;13.13;;;7.90;;
18340;SDS011;9296;48.084;16.352;2023-11-19T00:12:39;11.27;;;7.63;;
18340;SDS011;9296;48.084;16.352;2023-11-19T00:15:07;11.33;;;6.87;;
18340;SDS011;9296;48.084;16.352;2023-11-19T00:17:37;12.03;;;7.37;;
18340;SDS011;9296;48.084;16.352;2023-11-19T00:23:10;13.70;;;7.60;;
18340;SDS011;9296;48.084;16.352;2023-11-19T00:25:39;13.20;;;7.87;;
18340;SDS011;9296;48.084;16.352;2023-11-19T00:28:06;10.80;;;6.90;;
18340;SDS011;9296;48.084;16.352;2023-11-19T00:30:35;11.97;;;6.97;;
18340;SDS011;9296;48.084;16.352;2023-11-19T00:33:02;10.70;;;7.40;;
18340;SDS011;9296;48.084;16.352;2023-11-19T00:38:39;9.77;;;6.77;;
18340;SDS011;9296;48.084;16.352;2023-11-19T00:41:07;12.70;;;7.00;;
18340;SDS011;9296;48.084;16.352;2023-11-19T00:43:37;9.93;;;6.97;;
18340;SDS011;9296;48.084;16.352;2023-11-19T00:46:06;13.27;;;7.30;;
18340;SDS011;9296;48.084;16.352;2023-11-19T00:48:38;12.17;;;6.80;;
18340;SDS011;9296;48.084;16.352;2023-11-19T00:54:13;11.38;;;7.22;;
18340;SDS011;9296;48.084;16.352;2023-11-19T00:56:41;9.07;;;6.95;;
18340;SDS011;9296;48.084;16.352;2023-11-19T00:59:10;10.50;;;7.00;;
18340;SDS011;9296;48.084;16.352;2023-11-19T01:01:42;12.38;;;7.20;;
18340;SDS011;9296;48.084;16.352;2023-11-19T01:10:18;12.13;;;7.60;;
18340;SDS011;9296;48.084;16.352;2023-11-19T01:12:46;11.32;;;7.28;;
18340;SDS011;9296;48.084;16.352;2023-11-19T01:15:13;11.50;;;7.10;;
18340;SDS011;9296;48.084;16.352;2023-11-19T01:17:45;12.13;;;6.90;;
18340;SDS011;9296;48.084;16.352;2023-11-19T01:20:12;9.82;;;7.10;;
18340;SDS011;9296;48.084;16.352;2023-11-19T01:22:40;12.85;;;7.60;;
18340;SDS011;9296;48.084;16.352;2023-11-19T01:25:08;12.50;;;7.25;;
18340;SDS011;9296;48.084;16.352;2023-11-19T01:27:38;13.20;;;8.52;;
18340;SDS011;9296;48.084;16.352;2023-11-19T01:30:09;11.25;;;7.45;;
18340;SDS011;9296;48.084;16.352;2023-11-19T01:32:38;10.02;;;7.35;;
18340;SDS011;9296;48.084;16.352;2023-11-19T01:38:10;12.10;;;7.03;;
18340;SDS011;9296;48.084;16.352;2023-11-19T01:40:38;14.00;;;7.55;;
18340;SDS011;9296;48.084;16.352;2023-11-19T01:43:07;14.47;;;7.67;;
18340;SDS011;9296;48.084;16.352;2023-11-19T01:45:48;13.73;;;8.00;;
18340;SDS011;9296;48.084;16.352;2023-11-19T01:48:16;12.50;;;7.80;;
18340;SDS011;9296;48.084;16.352;2023-11-19T01:50:46;13.88;;;8.07;;
18340;SDS011;9296;48.084;16.352;2023-11-19T01:53:13;12.45;;;7.97;;
18340;SDS011;9296;48.084;16.352;2023-11-19T01:55:42;13.55;;;7.35;;
18340;SDS011;9296;48.084;16.352;2023-11-19T01:58:11;12.95;;;7.53;;
18340;SDS011;9296;48.084;16.352;2023-11-19T02:00:39;13.40;;;6.95;;
18340;SDS011;9296;48.084;16.352;2023-11-19T02:03:20;9.88;;;6.82;;
18340;SDS011;9296;48.084;16.352;2023-11-19T02:05:48;10.65;;;6.45;;
18340;SDS011;9296;48.084;16.352;2023-11-19T02:08:19;10.00;;;6.00;;
18340;SDS011;9296;48.084;16.352;2023-11-19T02:10:48;10.15;;;5.60;;
18340;SDS011;9296;48.084;16.352;2023-11-19T02:13:18;8.80;;;5.50;;
18340;SDS011;9296;48.084;16.352;2023-11-19T02:15:45;9.18;;;5.40;;
18340;SDS011;9296;48.084;16.352;2023-11-19T02:18:19;10.52;;;5.80;;
18340;SDS011;9296;48.084;16.352;2023-11-19T02:20:47;7.40;;;5.20;;
18340;SDS011;9296;48.084;16.352;2023-11-19T02:23:15;8.30;;;4.50;;
18340;SDS011;9296;48.084;16.352;2023-11-19T02:25:42;5.60;;;3.90;;
18340;SDS011;9296;48.084;16.352;2023-11-19T02:28:11;5.22;;;4.03;;
18340;SDS011;9296;48.084;16.352;2023-11-19T02:30:39;7.40;;;4.07;;
18340;SDS011;9296;48.084;16.352;2023-11-19T02:33:06;5.47;;;3.97;;
18340;SDS011;9296;48.084;16.352;2023-11-19T02:38:38;5.72;;;4.10;;
18340;SDS011;9296;48.084;16.352;2023-11-19T02:41:06;5.00;;;3.85;;
18340;SDS011;9296;48.084;16.352;2023-11-19T02:43:36;6.18;;;4.53;;
18340;SDS011;9296;48.084;16.352;2023-11-19T02:46:04;5.85;;;4.40;;
18340;SDS011;9296;48.084;16.352;2023-11-19T02:48:32;5.57;;;4.45;;
18340;SDS011;9296;48.084;16.352;2023-11-19T02:51:01;5.97;;;4.40;;
18340;SDS011;9296;48.084;16.352;2023-11-19T02:53:29;6.35;;;4.80;;
18340;SDS011;9296;48.084;16.352;2023-11-19T02:56:03;6.22;;;4.82;;
18340;SDS011;9296;48.084;16.352;2023-11-19T02:58:44;7.30;;;5.40;;
18340;SDS011;9296;48.084;16.352;2023-11-19T03:01:11;7.10;;;4.75;;
18340;SDS011;9296;48.084;16.352;2023-11-19T03:04:00;7.70;;;4.97;;
18340;SDS011;9296;48.084;16.352;2023-11-19T03:06:37;10.40;;;5.18;;
18340;SDS011;9296;48.084;16.352;2023-11-19T03:09:04;8.80;;;5.30;;
18340;SDS011;9296;48.084;16.352;2023-11-19T03:11:35;8.05;;;5.20;;
18340;SDS011;9296;48.084;16.352;2023-11-19T03:14:11;7.50;;;5.40;;
18340;SDS011;9296;48.084;16.352;2023-11-19T03:16:39;9.05;;;5.10;;
18340;SDS011;9296;48.084;16.352;2023-11-19T03:19:06;8.20;;;5.72;;
18340;SDS011;9296;48.084;16.352;2023-11-19T03:24:37;8.50;;;5.38;;
18340;SDS011;9296;48.084;16.352;2023-11-19T03:27:04;7.68;;;5.22;;
18340;SDS011;9296;48.084;16.352;2023-11-19T03:29:33;7.30;;;5.60;;
18340;SDS011;9296;48.084;16.352;2023-11-19T03:32:00;8.00;;;5.60;;
18340;SDS011;9296;48.084;16.352;2023-11-19T03:34:28;7.40;;;5.25;;
18340;SDS011;9296;48.084;16.352;2023-11-19T03:36:55;8.85;;;5.65;;
18340;SDS011;9296;48.084;16.352;2023-11-19T03:39:23;9.63;;;5.72;;
18340;SDS011;9296;48.084;16.352;2023-11-19T03:41:52;10.43;;;5.72;;
18340;SDS011;9296;48.084;16.352;2023-11-19T03:44:19;8.00;;;5.50;;
18340;SDS011;9296;48.084;16.352;2023-11-19T03:46:48;7.80;;;5.43;;
18340;SDS011;9296;48.084;16.352;2023-11-19T03:49:16;9.95;;;5.93;;
18340;SDS011;9296;48.084;16.352;2023-11-19T03:54:47;9.45;;;6.00;;
18340;SDS011;9296;48.084;16.352;2023-11-19T03:57:14;8.30;;;5.82;;
18340;SDS011;9296;48.084;16.352;2023-11-19T03:59:42;10.93;;;6.32;;
18340;SDS011;9296;48.084;16.352;2023-11-19T04:02:15;9.85;;;6.13;;
18340;SDS011;9296;48.084;16.352;2023-11-19T04:04:43;8.77;;;6.18;;
18340;SDS011;9296;48.084;16.352;2023-11-19T04:07:11;7.95;;;5.60;;
18340;SDS011;9296;48.084;16.352;2023-11-19T04:09:38;9.07;;;5.70;;
18340;SDS011;9296;48.084;16.352;2023-11-19T04:12:06;10.95;;;6.97;;
18340;SDS011;9296;48.084;16.352;2023-11-19T04:14:34;9.82;;;5.88;;
18340;SDS011;9296;48.084;16.352;2023-11-19T04:17:01;9.80;;;6.40;;
18340;SDS011;9296;48.084;16.352;2023-11-19T04:19:30;11.07;;;6.40;;
18340;SDS011;9296;48.084;16.352;2023-11-19T04:25:02;9.50;;;6.35;;
18340;SDS011;9296;48.084;16.352;2023-11-19T04:27:30;10.73;;;6.80;;
18340;SDS011;9296;48.084;16.352;2023-11-19T04:29:57;11.05;;;7.32;;
18340;SDS011;9296;48.084;16.352;2023-11-19T04:32:44;10.13;;;6.18;;
18340;SDS011;9296;48.084;16.352;2023-11-19T04:43:48;11.00;;;6.78;;
18340;SDS011;9296;48.084;16.352;2023-11-19T04:46:29;10.53;;;7.03;;
18340;SDS011;9296;48.084;16.352;2023-11-19T04:48:56;13.60;;;7.95;;
18340;SDS011;9296;48.084;16.352;2023-11-19T04:51:24;13.15;;;7.90;;
18340;SDS011;9296;48.084;16.352;2023-11-19T04:53:51;12.43;;;7.13;;
18340;SDS011;9296;48.084;16.352;2023-11-19T04:56:32;14.32;;;8.43;;
18340;SDS011;9296;48.084;16.352;2023-11-19T04:59:01;15.27;;;9.02;;
18340;SDS011;9296;48.084;16.352;2023-11-19T05:01:30;12.30;;;7.95;;
18340;SDS011;9296;48.084;16.352;2023-11-19T05:04:01;15.07;;;8.33;;
18340;SDS011;9296;48.084;16.352;2023-11-19T05:06:47;13.35;;;8.35;;
18340;SDS011;9296;48.084;16.352;2023-11-19T05:09:14;10.98;;;7.63;;
18340;SDS011;9296;48.084;16.352;2023-11-19T05:11:43;13.32;;;8.10;;
18340;SDS011;9296;48.084;16.352;2023-11-19T05:14:12;14.18;;;8.77;;
18340;SDS011;9296;48.084;16.352;2023-11-19T05:16:39;14.68;;;9.40;;
18340;SDS011;9296;48.084;16.352;2023-11-19T05:19:08;13.13;;;8.68;;
18340;SDS011;9296;48.084;16.352;2023-11-19T05:24:38;12.20;;;7.97;;
18340;SDS011;9296;48.084;16.352;2023-11-19T05:27:06;14.30;;;8.07;;
18340;SDS011;9296;48.084;16.352;2023-11-19T05:29:51;14.17;;;8.80;;
18340;SDS011;9296;48.084;16.352;2023-11-19T05:32:22;15.68;;;9.30;;
18340;SDS011;9296;48.084;16.352;2023-11-19T05:41:49;17.10;;;10.60;;
18340;SDS011;9296;48.084;16.352;2023-11-19T05:44:17;15.95;;;10.45;;
18340;SDS011;9296;48.084;16.352;2023-11-19T05:46:46;16.88;;;10.77;;
18340;SDS011;9296;48.084;16.352;2023-11-19T05:49:13;19.23;;;11.27;;
18340;SDS011;9296;48.084;16.352;2023-11-19T05:54:28;17.27;;;11.40;;
18340;SDS011;9296;48.084;16.352;2023-11-19T05:56:58;17.75;;;10.65;;
18340;SDS011;9296;48.084;16.352;2023-11-19T05:59:26;17.60;;;10.80;;
18340;SDS011;9296;48.084;16.352;2023-11-19T06:01:56;19.00;;;11.67;;
18340;SDS011;9296;48.084;16.352;2023-11-19T06:04:35;18.73;;;11.03;;
18340;SDS011;9296;48.084;16.352;2023-11-19T06:07:06;19.70;;;10.90;;
18340;SDS011;9296;48.084;16.352;2023-11-19T06:09:49;21.17;;;11.32;;
18340;SDS011;9296;48.084;16.352;2023-11-19T06:12:25;17.23;;;11.38;;
18340;SDS011;9296;48.084;16.352;2023-11-19T06:15:11;17.70;;;11.07;;
18340;SDS011;9296;48.084;16.352;2023-11-19T06:17:54;17.73;;;10.90;;
18340;SDS011;9296;48.084;16.352;2023-11-19T06:23:31;17.90;;;11.10;;
18340;SDS011;9296;48.084;16.352;2023-11-19T06:26:16;17.35;;;11.65;;
18340;SDS011;9296;48.084;16.352;2023-11-19T06:29:05;19.60;;;11.82;;
18340;SDS011;9296;48.084;16.352;2023-11-19T06:34:10;15.57;;;10.18;;
18340;SDS011;9296;48.084;16.352;2023-11-19T06:36:37;19.33;;;11.93;;
18340;SDS011;9296;48.084;16.352;2023-11-19T06:39:05;18.77;;;12.07;;
18340;SDS011;9296;48.084;16.352;2023-11-19T06:41:34;21.85;;;14.57;;
18340;SDS011;9296;48.084;16.352;2023-11-19T06:44:05;20.27;;;11.65;;
18340;SDS011;9296;48.084;16.352;2023-11-19T06:46:33;19.05;;;11.85;;
18340;SDS011;9296;48.084;16.352;2023-11-19T06:49:00;17.10;;;10.98;;
18340;SDS011;9296;48.084;16.352;2023-11-19T06:51:29;18.42;;;11.38;;
18340;SDS011;9296;48.084;16.352;2023-11-19T06:53:57;17.77;;;11.27;;
18340;SDS011;9296;48.084;16.352;2023-11-19T06:56:37;22.38;;;11.73;;
18340;SDS011;9296;48.084;16.352;2023-11-19T06:59:04;19.58;;;11.98;;
18340;SDS011;9296;48.084;16.352;2023-11-19T07:04:07;18.50;;;11.00;;
18340;SDS011;9296;48.084;16.352;2023-11-19T07:06:36;19.77;;;11.57;;
18340;SDS011;9296;48.084;16.352;2023-11-19T07:09:08;16.98;;;11.48;;
18340;SDS011;9296;48.084;16.352;2023-11-19T07:11:36;17.73;;;11.10;;
18340;SDS011;9296;48.084;16.352;2023-11-19T07:14:07;16.38;;;11.18;;
18340;SDS011;9296;48.084;16.352;2023-11-19T07:16:52;15.63;;;10.32;;
18340;SDS011;9296;48.084;16.352;2023-11-19T07:19:43;17.02;;;11.25;;
18340;SDS011;9296;48.084;16.352;2023-11-19T07:22:18;17.75;;;10.52;;
18340;SDS011;9296;48.084;16.352;2023-11-19T07:25:00;16.30;;;10.07;;
18340;SDS011;9296;48.084;16.352;2023-11-19T07:27:30;17.05;;;10.73;;
18340;SDS011;9296;48.084;16.352;2023-11-19T07:29:57;17.02;;;10.40;;
18340;SDS011;9296;48.084;16.352;2023-11-19T07:32:25;15.27;;;9.88;;
18340;SDS011;9296;48.084;16.352;2023-11-19T07:41:25;14.70;;;9.32;;
18340;SDS011;9296;48.084;16.352;2023-11-19T07:43:54;14.63;;;9.18;;
18340;SDS011;9296;48.084;16.352;2023-11-19T07:46:24;12.90;;;8.73;;
18340;SDS011;9296;48.084;16.352;2023-11-19T07:48:52;13.45;;;8.98;;
18340;SDS011;9296;48.084;16.352;2023-11-19T07:54:07;13.68;;;8.75;;
18340;SDS011;9296;48.084;16.352;2023-11-19T07:56:54;13.60;;;8.80;;
18340;SDS011;9296;48.084;16.352;2023-11-19T07:59:29;13.60;;;8.85;;
18340;SDS011;9296;48.084;16.352;2023-11-19T08:01:58;13.63;;;9.52;;
18340;SDS011;9296;48.084;16.352;2023-11-19T08:04:26;16.48;;;10.65;;
18340;SDS011;9296;48.084;16.352;2023-11-19T08:06:54;15.75;;;10.13;;
18340;SDS011;9296;48.084;16.352;2023-11-19T08:09:23;13.60;;;9.00;;
18340;SDS011;9296;48.084;16.352;2023-11-19T08:11:53;12.23;;;8.88;;
18340;SDS011;9296;48.084;16.352;2023-11-19T08:14:25;15.52;;;10.35;;
18340;SDS011;9296;48.084;16.352;2023-11-19T08:16:53;15.35;;;10.35;;
18340;SDS011;9296;48.084;16.352;2023-11-19T08:19:20;15.00;;;9.35;;
18340;SDS011;9296;48.084;16.352;2023-11-19T08:21:48;14.73;;;9.18;;
18340;SDS011;9296;48.084;16.352;2023-11-19T08:24:15;13.98;;;9.50;;
18340;SDS011;9296;48.084;16.352;2023-11-19T08:26:50;13.95;;;9.50;;
18340;SDS011;9296;48.084;16.352;2023-11-19T08:29:19;14.07;;;8.98;;
18340;SDS011;9296;48.084;16.352;2023-11-19T08:31:48;14.35;;;8.85;;
18340;SDS011;9296;48.084;16.352;2023-11-19T08:34:16;12.57;;;8.88;;
18340;SDS011;9296;48.084;16.352;2023-11-19T08:36:44;12.23;;;8.48;;
18340;SDS011;9296;48.084;16.352;2023-11-19T08:39:27;11.93;;;8.43;;
18340;SDS011;9296;48.084;16.352;2023-11-19T08:41:55;11.85;;;8.52;;
18340;SDS011;9296;48.084;16.352;2023-11-19T08:44:24;11.35;;;7.80;;
18340;SDS011;9296;48.084;16.352;2023-11-19T08:46:52;10.63;;;7.82;;
18340;SDS011;9296;48.084;16.352;2023-11-19T08:49:19;9.10;;;7.53;;
18340;SDS011;9296;48.084;16.352;2023-11-19T08:51:49;11.07;;;8.60;;
18340;SDS011;9296;48.084;16.352;2023-11-19T08:54:17;11.85;;;8.02;;
18340;SDS011;9296;48.084;16.352;2023-11-19T08:56:46;9.93;;;7.38;;
18340;SDS011;9296;48.084;16.352;2023-11-19T08:59:13;12.15;;;8.55;;
18340;SDS011;9296;48.084;16.352;2023-11-19T09:01:42;11.02;;;7.68;;
18340;SDS011;9296;48.084;16.352;2023-11-19T09:04:10;9.40;;;6.82;;
18340;SDS011;9296;48.084;16.352;2023-11-19T09:06:54;9.95;;;6.30;;
18340;SDS011;9296;48.084;16.352;2023-11-19T09:09:21;7.20;;;5.82;;
18340;SDS011;9296;48.084;16.352;2023-11-19T09:11:49;8.27;;;6.28;;
18340;SDS011;9296;48.084;16.352;2023-11-19T09:14:16;7.88;;;5.63;;
18340;SDS011;9296;48.084;16.352;2023-11-19T09:17:00;7.53;;;5.93;;
18340;SDS011;9296;48.084;16.352;2023-11-19T09:19:28;7.95;;;6.00;;
18340;SDS011;9296;48.084;16.352;2023-11-19T09:22:01;8.35;;;6.18;;
18340;SDS011;9296;48.084;16.352;2023-11-19T09:24:28;6.93;;;5.53;;
18340;SDS011;9296;48.084;16.352;2023-11-19T09:26:59;7.50;;;5.90;;
18340;SDS011;9296;48.084;16.352;2023-11-19T09:29:27;7.60;;;6.13;;
18340;SDS011;9296;48.084;16.352;2023-11-19T09:31:54;7.50;;;6.30;;
18340;SDS011;9296;48.084;16.352;2023-11-19T09:34:37;7.40;;;5.97;;
18340;SDS011;9296;48.084;16.352;2023-11-19T09:37:26;8.60;;;5.68;;
18340;SDS011;9296;48.084;16.352;2023-11-19T09:39:53;9.32;;;6.15;;
18340;SDS011;9296;48.084;16.352;2023-11-19T09:42:21;8.27;;;6.15;;
18340;SDS011;9296;48.084;16.352;2023-11-19T09:44:51;7.60;;;5.88;;
18340;SDS011;9296;48.084;16.352;2023-11-19T09:47:20;7.05;;;5.50;;
18340;SDS011;9296;48.084;16.352;2023-11-19T09:49:49;8.27;;;6.13;;
18340;SDS011;9296;48.084;16.352;2023-11-19T09:55:31;10.40;;;5.78;;
18340;SDS011;9296;48.084;16.352;2023-11-19T09:57:59;8.43;;;5.75;;
18340;SDS011;9296;48.084;16.352;2023-11-19T10:00:41;7.78;;;6.00;;
18340;SDS011;9296;48.084;16.352;2023-11-19T10:03:09;7.25;;;5.68;;
18340;SDS011;9296;48.084;16.352;2023-11-19T10:05:40;7.60;;;6.22;;
18340;SDS011;9296;48.084;16.352;2023-11-19T10:11:10;8.45;;;5.70;;
18340;SDS011;9296;48.084;16.352;2023-11-19T10:13:38;8.05;;;6.20;;
18340;SDS011;9296;48.084;16.352;2023-11-19T10:16:08;7.53;;;5.82;;
18340;SDS011;9296;48.084;16.352;2023-11-19T10:18:36;7.63;;;5.72;;
18340;SDS011;9296;48.084;16.352;2023-11-19T10:21:06;7.72;;;6.10;;
18340;SDS011;9296;48.084;16.352;2023-11-19T10:26:48;8.98;;;6.07;;
18340;SDS011;9296;48.084;16.352;2023-11-19T10:29:18;8.93;;;6.95;;
18340;SDS011;9296;48.084;16.352;2023-11-19T10:34:39;10.63;;;8.18;;
18340;SDS011;9296;48.084;16.352;2023-11-19T10:40:09;9.23;;;6.40;;
18340;SDS011;9296;48.084;16.352;2023-11-19T10:42:36;7.18;;;5.88;;
18340;SDS011;9296;48.084;16.352;2023-11-19T10:45:04;8.80;;;6.55;;
18340;SDS011;9296;48.084;16.352;2023-11-19T10:47:32;7.90;;;6.28;;
18340;SDS011;9296;48.084;16.352;2023-11-19T10:50:01;7.97;;;6.28;;
18340;SDS011;9296;48.084;16.352;2023-11-19T10:58:47;8.85;;;6.05;;
18340;SDS011;9296;48.084;16.352;2023-11-19T11:01:19;7.93;;;6.07;;
18340;SDS011;9296;48.084;16.352;2023-11-19T11:03:47;7.82;;;5.65;;
18340;SDS011;9296;48.084;16.352;2023-11-19T11:06:16;7.05;;;5.65;;
18340;SDS011;9296;48.084;16.352;2023-11-19T11:12:12;7.95;;;5.70;;
18340;SDS011;9296;48.084;16.352;2023-11-19T11:14:41;6.75;;;5.32;;
18340;SDS011;9296;48.084;16.352;2023-11-19T11:17:09;7.78;;;6.10;;
18340;SDS011;9296;48.084;16.352;2023-11-19T11:19:39;8.80;;;6.50;;
18340;SDS011;9296;48.084;16.352;2023-11-19T11:25:23;9.88;;;6.30;;
18340;SDS011;9296;48.084;16.352;2023-11-19T11:30:46;9.20;;;6.32;;
18340;SDS011;9296;48.084;16.352;2023-11-19T11:33:28;8.15;;;5.97;;
18340;SDS011;9296;48.084;16.352;2023-11-19T11:36:03;8.55;;;5.57;;
18340;SDS011;9296;48.084;16.352;2023-11-19T11:38:52;6.80;;;5.65;;
18340;SDS011;9296;48.084;16.352;2023-11-19T11:41:22;7.40;;;5.88;;
18340;SDS011;9296;48.084;16.352;2023-11-19T11:43:50;9.40;;;6.55;;
18340;SDS011;9296;48.084;16.352;2023-11-19T11:49:08;10.68;;;6.65;;
18340;SDS011;9296;48.084;16.352;2023-11-19T11:54:27;9.30;;;6.75;;
18340;SDS011;9296;48.084;16.352;2023-11-19T11:57:09;9.77;;;6.70;;
18340;SDS011;9296;48.084;16.352;2023-11-19T11:59:37;8.80;;;6.57;;
18340;SDS011;9296;48.084;16.352;2023-11-19T12:02:07;9.57;;;6.85;;
18340;SDS011;9296;48.084;16.352;2023-11-19T12:04:36;8.60;;;6.70;;
18340;SDS011;9296;48.084;16.352;2023-11-19T12:09:51;9.15;;;6.38;;
18340;SDS011;9296;48.084;16.352;2023-11-19T12:12:26;8.82;;;6.10;;
18340;SDS011;9296;48.084;16.352;2023-11-19T12:15:07;8.57;;;6.60;;
18340;SDS011;9296;48.084;16.352;2023-11-19T12:17:36;10.15;;;7.55;;
18340;SDS011;9296;48.084;16.352;2023-11-19T12:20:08;11.20;;;7.63;;
18340;SDS011;9296;48.084;16.352;2023-11-19T12:22:37;9.43;;;6.28;;
18340;SDS011;9296;48.084;16.352;2023-11-19T12:25:04;10.90;;;7.93;;
18340;SDS011;9296;48.084;16.352;2023-11-19T12:30:06;8.85;;;6.35;;
18340;SDS011;9296;48.084;16.352;2023-11-19T12:32:40;10.45;;;7.07;;
18340;SDS011;9296;48.084;16.352;2023-11-19T12:35:09;9.40;;;5.97;;
18340;SDS011;9296;48.084;16.352;2023-11-19T12:37:40;9.65;;;7.05;;
18340;SDS011;9296;48.084;16.352;2023-11-19T12:40:14;9.52;;;6.60;;
18340;SDS011;9296;48.084;16.352;2023-11-19T12:42:42;8.52;;;6.43;;
18340;SDS011;9296;48.084;16.352;2023-11-19T12:45:09;9.52;;;7.10;;
18340;SDS011;9296;48.084;16.352;2023-11-19T12:47:37;10.45;;;7.05;;
18340;SDS011;9296;48.084;16.352;2023-11-19T12:50:05;9.63;;;6.70;;
18340;SDS011;9296;48.084;16.352;2023-11-19T12:52:34;10.93;;;7.05;;
18340;SDS011;9296;48.084;16.352;2023-11-19T12:55:02;9.70;;;6.88;;
18340;SDS011;9296;48.084;16.352;2023-11-19T12:57:39;12.68;;;8.15;;
18340;SDS011;9296;48.084;16.352;2023-11-19T13:00:07;9.55;;;7.07;;
18340;SDS011;9296;48.084;16.352;2023-11-19T13:02:46;9.55;;;7.28;;
18340;SDS011;9296;48.084;16.352;2023-11-19T13:05:26;10.38;;;7.53;;
18340;SDS011;9296;48.084;16.352;2023-11-19T13:08:02;10.45;;;7.97;;
18340;SDS011;9296;48.084;16.352;2023-11-19T13:10:30;12.93;;;8.07;;
18340;SDS011;9296;48.084;16.352;2023-11-19T13:13:03;10.57;;;8.10;;
18340;SDS011;9296;48.084;16.352;2023-11-19T13:15:31;11.90;;;8.82;;
18340;SDS011;9296;48.084;16.352;2023-11-19T13:17:58;12.55;;;9.02;;
18340;SDS011;9296;48.084;16.352;2023-11-19T13:20:26;11.75;;;8.30;;
18340;SDS011;9296;48.084;16.352;2023-11-19T13:22:57;10.18;;;7.97;;
18340;SDS011;9296;48.084;16.352;2023-11-19T13:25:26;13.35;;;9.38;;
18340;SDS011;9296;48.084;16.352;2023-11-19T13:27:54;10.20;;;7.82;;
18340;SDS011;9296;48.084;16.352;2023-11-19T13:30:22;9.57;;;7.68;;
18340;SDS011;9296;48.084;16.352;2023-11-19T13:32:49;9.50;;;7.47;;
18340;SDS011;9296;48.084;16.352;2023-11-19T13:35:17;12.55;;;8.02;;
18340;SDS011;9296;48.084;16.352;2023-11-19T13:37:45;9.82;;;8.05;;
18340;SDS011;9296;48.084;16.352;2023-11-19T13:40:28;9.35;;;7.57;;
18340;SDS011;9296;48.084;16.352;2023-11-19T13:42:55;9.95;;;7.60;;
18340;SDS011;9296;48.084;16.352;2023-11-19T13:45:23;11.32;;;8.00;;
18340;SDS011;9296;48.084;16.352;2023-11-19T13:47:50;10.30;;;8.18;;
18340;SDS011;9296;48.084;16.352;2023-11-19T13:50:17;11.55;;;7.95;;
18340;SDS011;9296;48.084;16.352;2023-11-19T13:52:45;10.48;;;7.90;;
18340;SDS011;9296;48.084;16.352;2023-11-19T13:55:14;12.13;;;8.05;;
18340;SDS011;9296;48.084;16.352;2023-11-19T13:57:48;11.25;;;8.57;;
18340;SDS011;9296;48.084;16.352;2023-11-19T14:00:16;11.25;;;8.25;;
18340;SDS011;9296;48.084;16.352;2023-11-19T14:02:44;10.30;;;8.07;;
18340;SDS011;9296;48.084;16.352;2023-11-19T14:05:12;12.65;;;9.10;;
18340;SDS011;9296;48.084;16.352;2023-11-19T14:11:05;12.57;;;8.57;;
18340;SDS011;9296;48.084;16.352;2023-11-19T14:13:41;11.23;;;8.30;;
18340;SDS011;9296;48.084;16.352;2023-11-19T14:16:08;12.00;;;8.43;;
18340;SDS011;9296;48.084;16.352;2023-11-19T14:18:37;12.43;;;8.00;;
18340;SDS011;9296;48.084;16.352;2023-11-19T14:21:05;13.23;;;9.57;;
18340;SDS011;9296;48.084;16.352;2023-11-19T14:26:35;10.70;;;8.40;;
18340;SDS011;9296;48.084;16.352;2023-11-19T14:29:04;12.98;;;9.07;;
18340;SDS011;9296;48.084;16.352;2023-11-19T14:31:31;13.65;;;9.57;;
18340;SDS011;9296;48.084;16.352;2023-11-19T14:33:58;15.52;;;9.23;;
18340;SDS011;9296;48.084;16.352;2023-11-19T14:36:26;12.43;;;9.05;;
18340;SDS011;9296;48.084;16.352;2023-11-19T14:38:53;12.23;;;9.20;;
18340;SDS011;9296;48.084;16.352;2023-11-19T14:43:46;13.98;;;10.10;;
18340;SDS011;9296;48.084;16.352;2023-11-19T14:49:12;12.73;;;9.77;;
18340;SDS011;9296;48.084;16.352;2023-11-19T14:51:42;14.80;;;10.32;;
18340;SDS011;9296;48.084;16.352;2023-11-19T14:57:14;17.77;;;10.90;;
18340;SDS011;9296;48.084;16.352;2023-11-19T14:59:47;15.82;;;11.00;;
18340;SDS011;9296;48.084;16.352;2023-11-19T15:02:14;14.60;;;10.88;;
18340;SDS011;9296;48.084;16.352;2023-11-19T15:04:43;15.60;;;10.73;;
18340;SDS011;9296;48.084;16.352;2023-11-19T15:07:15;15.85;;;10.80;;
18340;SDS011;9296;48.084;16.352;2023-11-19T15:16:12;17.75;;;11.68;;
18340;SDS011;9296;48.084;16.352;2023-11-19T15:18:54;18.45;;;11.90;;
18340;SDS011;9296;48.084;16.352;2023-11-19T15:21:27;19.25;;;12.30;;
18340;SDS011;9296;48.084;16.352;2023-11-19T15:24:08;16.77;;;11.27;;
18340;SDS011;9296;48.084;16.352;2023-11-19T15:26:36;19.67;;;11.00;;
18340;SDS011;9296;48.084;16.352;2023-11-19T15:29:03;18.83;;;12.45;;
18340;SDS011;9296;48.084;16.352;2023-11-19T15:31:30;21.02;;;11.90;;
18340;SDS011;9296;48.084;16.352;2023-11-19T15:33:58;17.73;;;11.77;;
18340;SDS011;9296;48.084;16.352;2023-11-19T15:36:26;20.73;;;12.20;;
18340;SDS011;9296;48.084;16.352;2023-11-19T15:42:12;18.58;;;12.07;;
18340;SDS011;9296;48.084;16.352;2023-11-19T15:44:39;16.80;;;11.45;;
18340;SDS011;9296;48.084;16.352;2023-11-19T15:47:06;16.80;;;11.60;;
18340;SDS011;9296;48.084;16.352;2023-11-19T15:49:34;18.13;;;12.55;;
18340;SDS011;9296;48.084;16.352;2023-11-19T15:52:03;20.20;;;12.43;;
18340;SDS011;9296;48.084;16.352;2023-11-19T15:57:35;19.15;;;12.32;;
18340;SDS011;9296;48.084;16.352;2023-11-19T16:00:02;17.67;;;11.85;;
18340;SDS011;9296;48.084;16.352;2023-11-19T16:02:30;19.48;;;13.15;;
18340;SDS011;9296;48.084;16.352;2023-11-19T16:05:01;20.73;;;13.73;;
18340;SDS011;9296;48.084;16.352;2023-11-19T16:07:31;19.10;;;12.82;;
18340;SDS011;9296;48.084;16.352;2023-11-19T16:10:17;18.42;;;12.73;;
18340;SDS011;9296;48.084;16.352;2023-11-19T16:12:58;24.58;;;16.60;;
18340;SDS011;9296;48.084;16.352;2023-11-19T16:15:25;22.42;;;13.90;;
18340;SDS011;9296;48.084;16.352;2023-11-19T16:17:52;21.70;;;14.25;;
18340;SDS011;9296;48.084;16.352;2023-11-19T16:20:22;25.20;;;14.80;;
18340;SDS011;9296;48.084;16.352;2023-11-19T16:22:51;22.00;;;14.20;;
18340;SDS011;9296;48.084;16.352;2023-11-19T16:28:23;22.95;;;13.38;;
18340;SDS011;9296;48.084;16.352;2023-11-19T16:30:50;22.73;;;15.88;;
18340;SDS011;9296;48.084;16.352;2023-11-19T16:33:18;26.20;;;14.80;;
18340;SDS011;9296;48.084;16.352;2023-11-19T16:35:45;24.48;;;14.75;;
18340;SDS011;9296;48.084;16.352;2023-11-19T16:41:09;27.98;;;15.00;;
18340;SDS011;9296;48.084;16.352;2023-11-19T16:43:41;22.23;;;15.02;;
18340;SDS011;9296;48.084;16.352;2023-11-19T16:46:12;23.85;;;14.55;;
18340;SDS011;9296;48.084;16.352;2023-11-19T16:48:40;23.42;;;14.43;;
18340;SDS011;9296;48.084;16.352;2023-11-19T16:51:11;26.17;;;16.65;;
18340;SDS011;9296;48.084;16.352;2023-11-19T17:05:32;26.50;;;15.90;;
18340;SDS011;9296;48.084;16.352;2023-11-19T17:08:18;32.55;;;18.48;;
18340;SDS011;9296;48.084;16.352;2023-11-19T17:10:51;31.77;;;17.88;;
18340;SDS011;9296;48.084;16.352;2023-11-19T17:13:19;26.45;;;17.58;;
18340;SDS011;9296;48.084;16.352;2023-11-19T17:15:47;29.60;;;18.15;;
18340;SDS011;9296;48.084;16.352;2023-11-19T17:18:28;31.23;;;18.17;;
18340;SDS011;9296;48.084;16.352;2023-11-19T17:31:51;35.33;;;21.90;;
18340;SDS011;9296;48.084;16.352;2023-11-19T17:34:18;30.88;;;20.13;;
18340;SDS011;9296;48.084;16.352;2023-11-19T17:39:45;39.47;;;23.20;;
18340;SDS011;9296;48.084;16.352;2023-11-19T17:45:42;31.25;;;20.17;;
18340;SDS011;9296;48.084;16.352;2023-11-19T17:48:25;33.22;;;20.77;;
18340;SDS011;9296;48.084;16.352;2023-11-19T17:50:53;33.00;;;21.27;;
18340;SDS011;9296;48.084;16.352;2023-11-19T17:53:34;33.33;;;20.20;;